Portada
METAR-TAF:

METAR-TAF

Aeroports :

São Paulo-Congonhas, São Paulo, Brasil

latitud: 23-37S, longitud: 046-39W, altitud: 803 m

Observació

L'informe es va fer fa 36 minuts, a les 01:00 UTC
Vent 4 kt del Sud/Sud-Est
Temperatura 15°C
Humitat 88%
Pressió 1015 hPa
Visibilitat 10 km o més
sense núvols per sota de 1500 mi sense presència de cumulonimbus.

METAR: SBSP 160100Z 15004KT CAVOK 15/13 Q1015

Hora: 23:36 (01:36 UTC)

Pronòstic

L'informe es va fer fa 3 hores i 36 minuts, a les 22:00 UTC
Pronòstic vàlid del 16 a les 00 UTC al 16 a les 12 UTC
Vent 4 kt del Sud/Sud-Est
Visibilitat: 8000 m
Cel ennuvolat a una alçada de 1000 ft
Evolucionant progressivament
l' 16 a les 02 UTC al 16 a les 04 UTC
Cel ennuvolat a una alçada de 700 ft
Probabilitat 30%
l' 16 a les 06 UTC al 16 a les 12 UTC
Visibilitat: 4000 m
Cel ennuvolat a una alçada de 500 ft
plugim, boirina

TAF: SBSP 152200Z 1600/1612 15004KT 8000 BKN010 TX16/1600Z TN14/1609Z BECMG 1602/1604 BKN007 PROB30 1606/1612 4000 DZ BR BKN005 RMK PGD

Observacions i pronòstics meteorològics de més de 4000 aeroports (METAR i TAF).

Les estacions disponibles són els punts grocs i vermells al mapa.

Posi el ratolí al punt desitjat per veure el nom de l'estació.

Feu clic per veure les observacions i els pronòstics meteorològics.

Per canviar el mapa: feu clic els botons verds amb una creu de color negre per apropar; al botó verd amb un guió per allunyar la imatge; o en les fletxes verdes per a mapes adjacents.


METAR-TAF: